createdAt,value
2023-05-30T00:02:19.795Z,15.60
2023-05-30T00:04:48.940Z,15.50
2023-05-30T00:07:19.123Z,15.40
2023-05-30T00:09:46.955Z,15.60
2023-05-30T00:12:15.072Z,15.60
2023-05-30T00:14:42.904Z,15.50
2023-05-30T00:17:10.733Z,15.60
2023-05-30T00:19:38.541Z,15.60
2023-05-30T00:22:07.872Z,15.60
2023-05-30T00:24:35.726Z,15.40
2023-05-30T00:27:03.534Z,15.30
2023-05-30T00:29:31.349Z,15.10
2023-05-30T00:31:59.459Z,15.20
2023-05-30T00:34:27.325Z,15.10
2023-05-30T00:36:55.162Z,15.00
2023-05-30T00:39:24.424Z,15.00
2023-05-30T00:41:53.476Z,15.20
2023-05-30T00:44:21.392Z,15.10
2023-05-30T00:46:49.541Z,14.90
2023-05-30T00:49:17.717Z,14.90
2023-05-30T00:51:45.595Z,14.80
2023-05-30T00:54:13.863Z,14.70
2023-05-30T00:56:43.581Z,14.60
2023-05-30T00:59:11.443Z,14.70
2023-05-30T01:01:39.336Z,14.80
2023-05-30T01:04:09.947Z,14.90
2023-05-30T01:06:38.679Z,14.90
2023-05-30T01:09:07.314Z,14.90
2023-05-30T01:11:42.459Z,15.00
2023-05-30T01:14:19.516Z,14.90
2023-05-30T01:17:00.169Z,14.80
2023-05-30T01:19:56.241Z,14.50
2023-05-30T01:22:33.975Z,14.60
2023-05-30T01:25:16.486Z,14.40
2023-05-30T01:28:03.545Z,14.30
2023-05-30T01:30:33.045Z,14.30
2023-05-30T01:33:01.487Z,14.30
2023-05-30T01:35:29.366Z,14.30
2023-05-30T01:37:57.157Z,14.20
2023-05-30T01:40:27.441Z,14.00
2023-05-30T01:43:01.710Z,13.70
2023-05-30T01:45:41.721Z,13.80
2023-05-30T01:48:14.919Z,14.10
2023-05-30T01:50:46.172Z,14.20
2023-05-30T01:53:19.140Z,14.20
2023-05-30T01:55:48.095Z,14.30
2023-05-30T01:58:20.314Z,14.00
2023-05-30T02:00:51.414Z,14.00
2023-05-30T02:03:19.162Z,14.00
2023-05-30T02:05:47.087Z,13.90
2023-05-30T02:08:14.963Z,13.90
2023-05-30T02:10:42.801Z,13.90
2023-05-30T02:13:10.564Z,14.00
2023-05-30T02:15:38.309Z,13.90
2023-05-30T02:18:09.281Z,14.00
2023-05-30T02:20:37.382Z,14.10
2023-05-30T02:23:05.321Z,14.20
2023-05-30T02:25:33.159Z,14.20
2023-05-30T02:28:01.454Z,14.10
2023-05-30T02:30:29.511Z,14.00
2023-05-30T02:32:57.364Z,13.90
2023-05-30T02:35:26.510Z,13.80
2023-05-30T02:37:54.283Z,13.70
2023-05-30T02:40:22.065Z,13.80
2023-05-30T02:42:50.369Z,13.90
2023-05-30T02:45:18.193Z,13.80
2023-05-30T02:47:45.997Z,13.80
2023-05-30T02:50:13.841Z,13.80
2023-05-30T02:52:42.955Z,13.50
2023-05-30T02:55:11.128Z,13.10
2023-05-30T02:57:38.873Z,13.10
2023-05-30T03:00:08.396Z,13.30
2023-05-30T03:02:36.420Z,13.50
2023-05-30T03:05:04.692Z,13.50
2023-05-30T03:07:33.320Z,13.50
2023-05-30T03:10:02.447Z,13.80
2023-05-30T03:12:30.392Z,13.90
2023-05-30T03:14:58.201Z,13.60
2023-05-30T03:17:26.529Z,13.50
2023-05-30T03:19:54.302Z,13.70
2023-05-30T03:22:22.163Z,13.80
2023-05-30T03:24:49.988Z,13.90
2023-05-30T03:27:19.165Z,13.90
2023-05-30T03:29:47.036Z,13.70
2023-05-30T03:32:14.971Z,13.60
2023-05-30T03:34:42.933Z,13.80
2023-05-30T03:37:10.723Z,13.80
2023-05-30T03:39:38.470Z,13.90
2023-05-30T03:42:07.258Z,13.90
2023-05-30T03:44:36.408Z,13.90
2023-05-30T03:47:04.226Z,13.80
2023-05-30T03:49:31.960Z,13.60
2023-05-30T03:51:59.776Z,13.30
2023-05-30T03:54:27.558Z,13.40
2023-05-30T03:56:55.334Z,13.40
2023-05-30T03:59:23.502Z,13.60
2023-05-30T04:01:52.617Z,13.80
2023-05-30T04:04:20.545Z,13.90
2023-05-30T04:06:49.150Z,13.90
2023-05-30T04:09:16.996Z,13.70
2023-05-30T04:11:44.791Z,13.20
2023-05-30T04:14:12.662Z,13.10
2023-05-30T04:16:40.419Z,13.20
2023-05-30T04:19:09.533Z,13.20
2023-05-30T04:21:37.509Z,12.80
2023-05-30T04:24:06.956Z,12.40
2023-05-30T04:26:35.555Z,12.20
2023-05-30T04:29:03.360Z,12.40
2023-05-30T04:31:31.176Z,12.70
2023-05-30T04:34:00.969Z,12.70
2023-05-30T04:36:33.810Z,12.70
2023-05-30T04:39:03.398Z,12.40
2023-05-30T04:41:31.262Z,12.20
2023-05-30T04:44:01.040Z,12.40
2023-05-30T04:46:29.841Z,12.50
2023-05-30T04:49:01.784Z,12.50
2023-05-30T04:51:33.359Z,12.60
2023-05-30T04:54:01.423Z,12.50
2023-05-30T04:56:29.233Z,12.30
2023-05-30T04:58:59.337Z,12.20
2023-05-30T05:01:27.217Z,12.60
2023-05-30T05:03:55.302Z,12.60
2023-05-30T05:06:23.261Z,12.60
2023-05-30T05:08:52.382Z,12.50
2023-05-30T05:11:20.170Z,12.60
2023-05-30T05:13:47.977Z,12.60
2023-05-30T05:16:16.342Z,12.80
2023-05-30T05:18:44.200Z,13.00
2023-05-30T05:21:11.963Z,13.20
2023-05-30T05:23:39.819Z,13.30
2023-05-30T05:26:09.103Z,13.30
2023-05-30T05:28:36.893Z,13.10
2023-05-30T05:31:04.686Z,13.40
2023-05-30T05:33:32.481Z,13.40
2023-05-30T05:36:01.461Z,13.50
2023-05-30T05:38:30.130Z,13.40
2023-05-30T05:40:58.082Z,13.60
2023-05-30T05:43:27.542Z,13.70
2023-05-30T05:45:56.653Z,13.70
2023-05-30T05:48:24.502Z,13.70
2023-05-30T05:50:52.349Z,13.40
2023-05-30T05:53:20.213Z,13.50
2023-05-30T05:55:48.837Z,13.50
2023-05-30T05:58:16.755Z,13.30
2023-05-30T06:00:46.243Z,13.50
2023-05-30T06:03:14.208Z,13.60
2023-05-30T06:05:42.187Z,13.60
2023-05-30T06:08:09.947Z,13.40
2023-05-30T06:10:37.751Z,13.30
2023-05-30T06:13:05.588Z,13.40
2023-05-30T06:15:33.415Z,13.30
2023-05-30T06:18:02.645Z,13.30
2023-05-30T06:20:30.604Z,13.30
2023-05-30T06:22:58.438Z,13.30
2023-05-30T06:25:27.367Z,13.30
2023-05-30T06:27:55.189Z,13.20
2023-05-30T06:30:22.988Z,13.40
2023-05-30T06:32:50.921Z,13.10
2023-05-30T06:35:20.170Z,13.30
2023-05-30T06:37:48.081Z,13.30
2023-05-30T06:40:16.170Z,13.40
2023-05-30T06:42:43.974Z,13.50
2023-05-30T06:45:13.932Z,13.80
2023-05-30T06:47:41.906Z,13.90
2023-05-30T06:50:10.946Z,13.90
2023-05-30T06:52:40.098Z,14.10
2023-05-30T06:55:09.065Z,14.10
2023-05-30T06:57:38.042Z,14.30
2023-05-30T07:00:07.341Z,14.40
2023-05-30T07:02:35.187Z,14.50
2023-05-30T07:05:03.143Z,14.20
2023-05-30T07:07:31.188Z,13.90
2023-05-30T07:10:00.507Z,13.90
2023-05-30T07:12:28.481Z,13.90
2023-05-30T07:14:56.250Z,14.20
2023-05-30T07:17:24.036Z,14.40
2023-05-30T07:19:51.839Z,14.60
2023-05-30T07:22:19.757Z,14.70
2023-05-30T07:24:47.524Z,14.60
2023-05-30T07:27:16.630Z,14.50
2023-05-30T07:29:44.475Z,14.50
2023-05-30T07:32:14.036Z,14.70
2023-05-30T07:34:43.023Z,14.90
2023-05-30T07:37:11.091Z,14.90
2023-05-30T07:39:38.840Z,14.90
2023-05-30T07:42:08.325Z,14.80
2023-05-30T07:44:37.474Z,14.90
2023-05-30T07:47:05.887Z,15.20
2023-05-30T07:49:33.710Z,15.60
2023-05-30T07:52:01.513Z,15.60
2023-05-30T07:54:29.299Z,15.60
2023-05-30T07:56:57.053Z,15.60
2023-05-30T07:59:24.879Z,15.60
2023-05-30T08:01:53.991Z,15.70
2023-05-30T08:04:21.840Z,15.80
2023-05-30T08:06:49.615Z,15.80
2023-05-30T08:09:18.268Z,15.90
2023-05-30T08:11:46.033Z,16.20
2023-05-30T08:14:13.815Z,16.30
2023-05-30T08:16:41.877Z,16.20
2023-05-30T08:19:11.108Z,16.50
2023-05-30T08:21:38.879Z,16.60
2023-05-30T08:24:08.236Z,16.30
2023-05-30T08:26:36.487Z,16.30
2023-05-30T08:29:05.567Z,16.60
2023-05-30T08:31:33.521Z,16.70
2023-05-30T08:34:03.696Z,16.70
2023-05-30T08:36:33.603Z,16.90
2023-05-30T08:39:14.256Z,17.00
2023-05-30T08:41:43.615Z,17.20
2023-05-30T08:44:11.429Z,17.40
2023-05-30T08:46:43.579Z,17.50
2023-05-30T08:49:14.894Z,17.30
2023-05-30T08:51:45.300Z,17.40
2023-05-30T08:54:18.402Z,17.40
2023-05-30T08:56:52.624Z,17.50
2023-05-30T08:59:20.935Z,17.50
2023-05-30T09:01:52.982Z,17.70
2023-05-30T09:04:24.270Z,17.90
2023-05-30T09:06:55.201Z,17.80
2023-05-30T09:09:24.741Z,18.00
2023-05-30T09:11:53.465Z,17.80
2023-05-30T09:14:21.365Z,17.60
2023-05-30T09:16:49.897Z,17.70
2023-05-30T09:19:17.771Z,17.80
2023-05-30T09:21:46.864Z,18.00
2023-05-30T09:24:16.189Z,18.10
2023-05-30T09:26:58.597Z,17.90
2023-05-30T09:29:27.196Z,18.20
2023-05-30T09:31:55.173Z,18.50
2023-05-30T09:34:23.450Z,18.50
2023-05-30T09:36:57.944Z,18.30
2023-05-30T09:39:28.811Z,18.10
2023-05-30T09:41:58.449Z,18.20
2023-05-30T09:44:26.541Z,18.50
2023-05-30T09:46:58.335Z,18.80
2023-05-30T09:49:28.928Z,18.90
2023-05-30T09:51:56.762Z,18.90
2023-05-30T09:54:24.581Z,18.80
2023-05-30T09:56:54.824Z,19.10
2023-05-30T09:59:25.920Z,19.50
2023-05-30T10:01:53.760Z,19.80
2023-05-30T10:04:23.333Z,19.80
2023-05-30T10:06:52.708Z,19.90
2023-05-30T10:09:22.820Z,20.00
2023-05-30T10:11:51.571Z,20.30
2023-05-30T10:14:20.959Z,20.60
2023-05-30T10:16:49.996Z,20.80
2023-05-30T10:19:20.414Z,21.00
2023-05-30T10:21:49.437Z,21.30
2023-05-30T10:24:20.999Z,21.30
2023-05-30T10:26:51.474Z,21.40
2023-05-30T10:29:24.685Z,21.30
2023-05-30T10:31:55.393Z,21.10
2023-05-30T10:34:36.325Z,20.90
2023-05-30T10:37:04.380Z,20.90
2023-05-30T10:39:40.716Z,20.80
2023-05-30T10:42:15.965Z,20.80
2023-05-30T10:44:56.285Z,20.90
2023-05-30T10:47:40.837Z,21.40
2023-05-30T10:50:15.092Z,21.80
2023-05-30T10:52:43.029Z,22.30
2023-05-30T10:55:11.807Z,22.40
2023-05-30T10:57:39.700Z,22.40
2023-05-30T11:00:22.945Z,22.50
2023-05-30T11:02:52.837Z,22.30
2023-05-30T11:05:25.551Z,22.10
2023-05-30T11:07:53.326Z,22.30
2023-05-30T11:10:27.156Z,22.20
2023-05-30T11:13:08.620Z,22.00
2023-05-30T11:15:38.622Z,22.00
2023-05-30T11:18:16.942Z,21.70
2023-05-30T11:20:50.954Z,21.70
2023-05-30T11:23:20.294Z,21.50
2023-05-30T11:25:48.195Z,21.60
2023-05-30T11:28:17.683Z,21.70
2023-05-30T11:30:48.778Z,21.60
2023-05-30T11:33:18.620Z,21.60
2023-05-30T11:35:51.394Z,21.20
2023-05-30T11:38:23.303Z,21.30
2023-05-30T11:40:52.419Z,21.60
2023-05-30T11:43:20.740Z,21.90
2023-05-30T11:45:57.948Z,22.10
2023-05-30T11:48:25.902Z,22.20
2023-05-30T11:50:56.439Z,22.30
2023-05-30T11:53:24.220Z,22.20
2023-05-30T11:55:52.014Z,22.40
2023-05-30T11:58:20.815Z,22.50
2023-05-30T12:00:50.254Z,23.20
2023-05-30T12:03:18.728Z,23.50
2023-05-30T12:05:48.185Z,23.40
2023-05-30T12:08:18.037Z,22.90
2023-05-30T12:10:46.431Z,22.60
2023-05-30T12:13:14.340Z,22.70
2023-05-30T12:15:42.168Z,23.20
2023-05-30T12:18:11.957Z,23.50
2023-05-30T12:20:45.028Z,23.10
2023-05-30T12:23:13.300Z,23.40
2023-05-30T12:25:41.417Z,23.70
2023-05-30T12:28:14.358Z,23.90
2023-05-30T12:30:44.932Z,24.00
2023-05-30T12:33:17.856Z,24.20
2023-05-30T12:35:46.667Z,23.70
2023-05-30T12:38:16.879Z,23.50
2023-05-30T12:40:47.313Z,23.10
2023-05-30T12:43:16.389Z,22.70
2023-05-30T12:45:45.845Z,22.60
2023-05-30T12:48:13.953Z,22.90
2023-05-30T12:50:43.336Z,23.00
2023-05-30T12:53:11.349Z,22.70
2023-05-30T12:55:39.463Z,22.80
2023-05-30T12:58:07.732Z,23.00
2023-05-30T13:00:37.501Z,23.10
2023-05-30T13:03:06.666Z,23.00
2023-05-30T13:05:34.740Z,23.20
2023-05-30T13:08:03.879Z,23.30
2023-05-30T13:10:32.529Z,23.20
2023-05-30T13:13:00.633Z,23.20
2023-05-30T13:15:28.465Z,23.20
2023-05-30T13:17:56.245Z,23.30
2023-05-30T13:20:24.196Z,23.40
2023-05-30T13:22:52.097Z,23.50
2023-05-30T13:25:21.327Z,23.80
2023-05-30T13:27:51.557Z,24.10
2023-05-30T13:30:19.759Z,23.70
2023-05-30T13:32:48.504Z,23.80
2023-05-30T13:35:16.361Z,23.90
2023-05-30T13:37:44.384Z,24.10
2023-05-30T13:40:12.825Z,24.30
2023-05-30T13:42:41.962Z,24.30
2023-05-30T13:45:10.191Z,24.30
2023-05-30T13:47:37.980Z,23.90
2023-05-30T13:50:06.580Z,24.10
2023-05-30T13:52:34.912Z,24.90
2023-05-30T13:55:02.698Z,24.40
2023-05-30T13:57:31.050Z,23.90
2023-05-30T14:00:00.216Z,23.90
2023-05-30T14:02:28.635Z,24.00
2023-05-30T14:04:56.563Z,24.10
2023-05-30T14:07:25.833Z,24.30
2023-05-30T14:09:53.619Z,24.50
2023-05-30T14:12:21.402Z,24.80
2023-05-30T14:14:49.198Z,25.00
2023-05-30T14:17:18.633Z,25.00
2023-05-30T14:19:46.953Z,24.80
2023-05-30T14:22:14.733Z,24.70
2023-05-30T14:24:43.059Z,24.50
2023-05-30T14:27:13.800Z,24.50
2023-05-30T14:29:41.957Z,24.40
2023-05-30T14:32:09.906Z,24.30
2023-05-30T14:34:39.118Z,24.50
2023-05-30T14:37:08.732Z,24.80
2023-05-30T14:39:36.697Z,24.90
2023-05-30T14:42:05.658Z,24.60
2023-05-30T14:44:33.477Z,24.30
2023-05-30T14:47:01.320Z,24.10
2023-05-30T14:49:29.292Z,24.20
2023-05-30T14:51:58.766Z,24.20
2023-05-30T14:54:26.845Z,24.40
2023-05-30T14:56:54.686Z,24.50
2023-05-30T14:59:22.524Z,24.60
2023-05-30T15:01:50.644Z,24.30
2023-05-30T15:04:19.558Z,24.00
2023-05-30T15:06:47.457Z,24.40
2023-05-30T15:09:16.593Z,24.80
2023-05-30T15:11:44.365Z,25.20
2023-05-30T15:14:12.457Z,25.10
2023-05-30T15:16:40.792Z,24.80
2023-05-30T15:19:09.111Z,24.90
2023-05-30T15:21:37.127Z,25.00
2023-05-30T15:24:05.328Z,25.30
2023-05-30T15:26:34.445Z,25.30
2023-05-30T15:29:02.430Z,25.30
2023-05-30T15:31:30.369Z,25.30
2023-05-30T15:33:58.225Z,25.20
2023-05-30T15:36:26.048Z,25.40
2023-05-30T15:38:53.843Z,25.60
2023-05-30T15:41:21.646Z,25.60
2023-05-30T15:43:50.749Z,25.90
2023-05-30T15:46:19.403Z,25.50
2023-05-30T15:48:47.385Z,25.40
2023-05-30T15:51:15.242Z,24.90
2023-05-30T15:53:43.108Z,24.70
2023-05-30T15:56:11.821Z,24.40
2023-05-30T15:58:39.774Z,24.40
2023-05-30T16:01:08.889Z,24.30
2023-05-30T16:03:37.203Z,24.50
2023-05-30T16:06:05.358Z,24.30
2023-05-30T16:08:33.198Z,23.90
2023-05-30T16:11:01.201Z,24.10
2023-05-30T16:13:29.406Z,23.70
2023-05-30T16:15:57.162Z,23.50
2023-05-30T16:18:26.261Z,23.30
2023-05-30T16:20:54.101Z,22.90
2023-05-30T16:23:21.927Z,22.80
2023-05-30T16:25:49.971Z,22.70
2023-05-30T16:28:17.848Z,22.40
2023-05-30T16:30:46.188Z,22.40
2023-05-30T16:33:14.063Z,22.10
2023-05-30T16:35:43.191Z,22.20
2023-05-30T16:38:12.048Z,22.30
2023-05-30T16:40:40.962Z,22.50
2023-05-30T16:43:08.714Z,22.50
2023-05-30T16:45:36.487Z,22.50
2023-05-30T16:48:04.429Z,22.60
2023-05-30T16:50:32.252Z,22.60
2023-05-30T16:53:01.463Z,22.50
2023-05-30T16:55:29.317Z,22.60
2023-05-30T16:57:57.836Z,22.70
2023-05-30T17:00:25.808Z,22.60
2023-05-30T17:02:53.723Z,22.70
2023-05-30T17:05:22.276Z,22.50
2023-05-30T17:07:50.057Z,22.50
2023-05-30T17:10:19.242Z,22.60
2023-05-30T17:12:48.268Z,23.00
2023-05-30T17:15:16.042Z,22.90
2023-05-30T17:17:43.851Z,22.80
2023-05-30T17:20:14.405Z,22.60
2023-05-30T17:22:42.867Z,22.40
2023-05-30T17:25:12.575Z,22.50
2023-05-30T17:27:41.813Z,22.60
2023-05-30T17:30:10.221Z,22.60
2023-05-30T17:32:38.717Z,22.40
2023-05-30T17:35:08.486Z,22.30
2023-05-30T17:37:36.496Z,22.20
2023-05-30T17:40:04.452Z,22.30
2023-05-30T17:42:32.229Z,22.30
2023-05-30T17:45:01.352Z,22.40
2023-05-30T17:47:29.259Z,22.50
2023-05-30T17:49:57.269Z,22.40
2023-05-30T17:52:25.030Z,22.40
2023-05-30T17:54:52.791Z,22.40
2023-05-30T17:57:20.545Z,22.30
2023-05-30T17:59:48.362Z,22.20
2023-05-30T18:02:17.843Z,21.90
2023-05-30T18:04:45.655Z,21.90
2023-05-30T18:07:13.701Z,22.00
2023-05-30T18:09:41.509Z,22.00
2023-05-30T18:12:10.648Z,21.90
2023-05-30T18:14:38.481Z,21.90
2023-05-30T18:17:06.975Z,22.00
2023-05-30T18:19:36.065Z,22.10
2023-05-30T18:22:05.814Z,22.00
2023-05-30T18:24:33.665Z,21.80
2023-05-30T18:27:01.629Z,21.80
2023-05-30T18:29:30.045Z,21.80
2023-05-30T18:31:57.831Z,21.60
2023-05-30T18:34:29.936Z,21.60
2023-05-30T18:36:59.203Z,21.70
2023-05-30T18:39:26.981Z,21.70
2023-05-30T18:41:54.765Z,21.70
2023-05-30T18:44:22.508Z,21.60
2023-05-30T18:46:50.335Z,21.60
2023-05-30T18:49:18.149Z,21.70
2023-05-30T18:51:45.963Z,21.80
2023-05-30T18:54:15.146Z,21.70
2023-05-30T18:56:43.503Z,21.60
2023-05-30T18:59:11.421Z,21.60
2023-05-30T19:01:39.295Z,21.50
2023-05-30T19:04:09.514Z,21.50
2023-05-30T19:06:38.507Z,21.40
2023-05-30T19:09:06.690Z,21.40
2023-05-30T19:11:36.454Z,21.30
2023-05-30T19:14:04.271Z,21.20
2023-05-30T19:16:33.349Z,21.20
2023-05-30T19:19:01.156Z,21.30
2023-05-30T19:21:28.922Z,21.30
2023-05-30T19:23:56.713Z,21.20
2023-05-30T19:26:24.558Z,21.20
2023-05-30T19:28:53.652Z,21.20
2023-05-30T19:31:21.856Z,21.10
2023-05-30T19:33:49.852Z,20.90
2023-05-30T19:36:17.692Z,21.00
2023-05-30T19:38:45.535Z,20.80
2023-05-30T19:41:13.993Z,20.60
2023-05-30T19:43:41.783Z,20.60
2023-05-30T19:46:11.925Z,20.50
2023-05-30T19:48:39.898Z,20.60
2023-05-30T19:51:07.758Z,20.40
2023-05-30T19:53:35.641Z,20.30
2023-05-30T19:56:04.025Z,20.40
2023-05-30T19:58:31.775Z,20.30
2023-05-30T20:00:59.773Z,20.40
2023-05-30T20:03:29.060Z,20.30
2023-05-30T20:05:56.882Z,20.40
2023-05-30T20:08:24.696Z,20.20
2023-05-30T20:10:52.764Z,20.20
2023-05-30T20:13:20.528Z,20.20
2023-05-30T20:15:48.322Z,20.30
2023-05-30T20:18:16.168Z,20.30
2023-05-30T20:20:45.795Z,20.20
2023-05-30T20:23:13.627Z,20.00
2023-05-30T20:25:41.412Z,20.10
2023-05-30T20:28:09.573Z,20.00
2023-05-30T20:30:37.324Z,20.00
2023-05-30T20:33:05.977Z,19.80
2023-05-30T20:35:33.865Z,19.90
2023-05-30T20:38:02.975Z,19.90
2023-05-30T20:40:30.986Z,19.90
2023-05-30T20:42:58.951Z,19.90
2023-05-30T20:45:27.163Z,20.00
2023-05-30T20:47:54.986Z,20.00
2023-05-30T20:50:22.762Z,20.10
2023-05-30T20:52:50.640Z,20.20
2023-05-30T20:55:19.762Z,20.10
2023-05-30T20:57:47.582Z,20.00
2023-05-30T21:00:16.080Z,19.60
2023-05-30T21:02:43.987Z,19.50
2023-05-30T21:05:11.810Z,19.40
2023-05-30T21:07:41.126Z,19.40
2023-05-30T21:10:10.196Z,19.20
2023-05-30T21:12:39.306Z,19.00
2023-05-30T21:15:08.352Z,18.80
2023-05-30T21:17:36.324Z,18.70
2023-05-30T21:20:04.375Z,18.60
2023-05-30T21:22:32.439Z,18.40
2023-05-30T21:25:00.210Z,18.20
2023-05-30T21:27:28.001Z,18.20
2023-05-30T21:29:57.273Z,18.20
2023-05-30T21:32:25.108Z,18.20
2023-05-30T21:34:53.015Z,18.00
2023-05-30T21:37:20.944Z,18.10
2023-05-30T21:39:48.924Z,18.10
2023-05-30T21:42:16.819Z,18.00
2023-05-30T21:44:44.571Z,17.90
2023-05-30T21:47:13.666Z,17.80
2023-05-30T21:49:41.450Z,17.80
2023-05-30T21:52:09.320Z,17.70
2023-05-30T21:54:38.732Z,17.70
2023-05-30T21:57:08.719Z,17.70
2023-05-30T21:59:37.705Z,17.70
2023-05-30T22:02:07.091Z,17.60
2023-05-30T22:04:36.879Z,17.60
2023-05-30T22:07:07.964Z,17.60
2023-05-30T22:09:36.612Z,17.40
2023-05-30T22:12:04.928Z,17.40
2023-05-30T22:14:32.687Z,17.20
2023-05-30T22:17:00.509Z,17.10
2023-05-30T22:19:28.279Z,17.20
2023-05-30T22:22:03.437Z,17.20
2023-05-30T22:24:33.043Z,17.20
2023-05-30T22:27:01.002Z,17.00
2023-05-30T22:29:28.815Z,17.00
2023-05-30T22:31:56.909Z,16.90
2023-05-30T22:34:24.841Z,16.70
2023-05-30T22:36:52.663Z,16.70
2023-05-30T22:39:21.792Z,16.70
2023-05-30T22:41:49.574Z,16.70
2023-05-30T22:44:17.454Z,16.70
2023-05-30T22:46:45.865Z,16.70
2023-05-30T22:49:13.707Z,16.60
2023-05-30T22:51:41.763Z,16.50
2023-05-30T22:54:09.689Z,16.60
2023-05-30T22:56:38.832Z,16.60
2023-05-30T22:59:06.651Z,16.70
2023-05-30T23:01:34.442Z,16.70
2023-05-30T23:04:03.538Z,16.70
2023-05-30T23:06:31.343Z,16.80
2023-05-30T23:08:59.247Z,16.80
2023-05-30T23:11:27.706Z,16.80
2023-05-30T23:13:57.010Z,16.70
2023-05-30T23:16:24.900Z,16.70
2023-05-30T23:18:52.763Z,16.70
2023-05-30T23:21:20.651Z,16.80
2023-05-30T23:23:48.500Z,16.70
2023-05-30T23:26:16.446Z,16.60
2023-05-30T23:28:44.212Z,16.70
2023-05-30T23:31:13.737Z,16.70
2023-05-30T23:33:41.557Z,16.60
2023-05-30T23:36:09.850Z,16.40
2023-05-30T23:38:37.649Z,16.20
2023-05-30T23:41:05.474Z,16.00
2023-05-30T23:43:33.308Z,15.90
2023-05-30T23:46:01.075Z,15.80
2023-05-30T23:48:30.174Z,15.60
2023-05-30T23:50:57.932Z,15.70
2023-05-30T23:53:26.431Z,15.70
2023-05-30T23:55:54.196Z,15.60
2023-05-30T23:58:22.159Z,15.60
